Unalakleet, Alaska
Current Conditions -  °F | °C
As of 6:56 PM on Tuesday 21 Oct 2014 (Local Time) from PAUN Reporting Station
Clear Clear  
Wind Chill: 23°   Ceiling: Unl
Heat Index: 30°   Visibility: 10mi
Dew Point: 21°   Wind: 7mph
Humidity: 69%   Direction: 350°N
Pressure: 29.55"   Gusts: NA
Location:  63.88°N, 160.79°W
Report Text: PAUN 220256Z AUTO 35006KT 10SM CLR M01/M06 A2955 RMK AO1 52010
Loading
Personal Weather Stations






























Interactive Weather Map
Tropical Storm Tracking
New forecast layout! Learn more

10-Day Weather Forecast

Advertisements
Track Severe Weather on mobile